createdAt,value
2022-10-13T00:00:13.946Z,87.80
2022-10-13T00:02:41.050Z,87.90
2022-10-13T00:05:08.201Z,88.00
2022-10-13T00:07:35.136Z,88.10
2022-10-13T00:10:02.105Z,88.20
2022-10-13T00:12:28.980Z,88.30
2022-10-13T00:14:55.882Z,88.40
2022-10-13T00:17:22.828Z,89.00
2022-10-13T00:19:49.702Z,88.60
2022-10-13T00:22:17.043Z,88.60
2022-10-13T00:24:44.254Z,88.70
2022-10-13T00:27:11.252Z,88.80
2022-10-13T00:29:38.212Z,88.90
2022-10-13T00:32:05.188Z,89.00
2022-10-13T00:34:32.037Z,89.00
2022-10-13T00:36:58.885Z,89.10
2022-10-13T00:39:25.749Z,89.20
2022-10-13T00:41:54.513Z,89.30
2022-10-13T00:44:58.946Z,89.40
2022-10-13T00:47:27.018Z,89.60
2022-10-13T00:49:53.858Z,89.50
2022-10-13T00:52:21.027Z,89.60
2022-10-13T00:54:48.266Z,89.70
2022-10-13T00:57:15.106Z,89.80
2022-10-13T00:59:42.081Z,89.80
2022-10-13T01:02:09.588Z,89.90
2022-10-13T01:04:43.692Z,90.00
2022-10-13T01:07:10.872Z,90.00
2022-10-13T01:09:37.991Z,90.00
2022-10-13T01:12:23.206Z,90.00
2022-10-13T01:14:53.013Z,90.00
2022-10-13T01:17:23.027Z,90.00
2022-10-13T01:19:58.762Z,90.10
2022-10-13T01:23:06.882Z,90.10
2022-10-13T01:25:52.758Z,90.20
2022-10-13T01:29:10.160Z,90.10
2022-10-13T01:32:05.866Z,90.10
2022-10-13T01:34:51.316Z,90.10
2022-10-13T01:37:31.741Z,90.10
2022-10-13T01:40:05.578Z,90.20
2022-10-13T01:42:40.017Z,90.20
2022-10-13T01:45:06.918Z,90.20
2022-10-13T01:47:34.088Z,90.10
2022-10-13T01:50:00.983Z,90.00
2022-10-13T01:52:31.327Z,90.10
2022-10-13T01:54:58.272Z,90.10
2022-10-13T01:57:33.619Z,90.20
2022-10-13T02:00:08.049Z,90.20
2022-10-13T02:02:43.945Z,90.20
2022-10-13T02:05:29.160Z,90.30
2022-10-13T02:08:33.069Z,90.30
2022-10-13T02:11:21.180Z,90.30
2022-10-13T02:14:14.076Z,90.30
2022-10-13T02:16:43.821Z,90.30
2022-10-13T02:19:12.932Z,90.30
2022-10-13T02:21:41.397Z,90.40
2022-10-13T02:24:08.582Z,90.40
2022-10-13T02:26:35.655Z,90.40
2022-10-13T02:29:09.849Z,90.40
2022-10-13T02:31:36.977Z,90.40
2022-10-13T02:34:04.069Z,90.50
2022-10-13T02:36:31.372Z,90.50
2022-10-13T02:38:58.310Z,90.50
2022-10-13T02:41:25.226Z,90.50
2022-10-13T02:43:52.122Z,90.50
2022-10-13T02:46:19.051Z,90.60
2022-10-13T02:48:46.024Z,90.60
2022-10-13T02:51:13.082Z,90.60
2022-10-13T02:53:40.030Z,90.60
2022-10-13T02:56:07.802Z,90.60
2022-10-13T02:58:37.155Z,90.60
2022-10-13T03:01:08.508Z,90.70
2022-10-13T03:03:35.611Z,90.70
2022-10-13T03:06:02.849Z,90.70
2022-10-13T03:08:29.757Z,90.70
2022-10-13T03:10:57.991Z,90.70
2022-10-13T03:13:24.838Z,90.70
2022-10-13T03:15:51.807Z,90.70
2022-10-13T03:18:18.722Z,90.70
2022-10-13T03:20:45.594Z,90.80
2022-10-13T03:23:12.470Z,90.80
2022-10-13T03:25:39.361Z,90.80
2022-10-13T03:28:06.183Z,90.80
2022-10-13T03:30:33.064Z,90.80
2022-10-13T03:32:59.912Z,90.80
2022-10-13T03:35:29.615Z,90.80
2022-10-13T03:37:56.544Z,90.80
2022-10-13T03:40:23.686Z,90.80
2022-10-13T03:42:50.569Z,90.90
2022-10-13T03:45:17.579Z,90.90
2022-10-13T03:47:44.691Z,90.90
2022-10-13T03:50:11.586Z,90.90
2022-10-13T03:52:38.434Z,90.90
2022-10-13T03:55:05.812Z,90.90
2022-10-13T03:57:32.630Z,90.90
2022-10-13T04:00:00.111Z,90.90
2022-10-13T04:02:27.010Z,90.90
2022-10-13T04:04:54.140Z,90.90
2022-10-13T04:07:21.120Z,90.90
2022-10-13T04:09:48.038Z,90.90
2022-10-13T04:12:19.759Z,90.90
2022-10-13T04:14:47.567Z,91.00
2022-10-13T04:17:14.525Z,91.00
2022-10-13T04:19:41.388Z,91.00
2022-10-13T04:22:08.468Z,91.00
2022-10-13T04:24:35.359Z,91.00
2022-10-13T04:27:02.257Z,91.00
2022-10-13T04:29:29.189Z,91.00
2022-10-13T04:31:56.066Z,91.00
2022-10-13T04:34:22.926Z,91.00
2022-10-13T04:36:51.811Z,91.00
2022-10-13T04:39:18.866Z,91.10
2022-10-13T04:41:45.693Z,91.00
2022-10-13T04:44:13.844Z,91.10
2022-10-13T04:46:40.770Z,91.10
2022-10-13T04:49:07.645Z,91.10
2022-10-13T04:51:34.824Z,91.10
2022-10-13T04:54:02.307Z,91.10
2022-10-13T04:56:29.279Z,91.10
2022-10-13T04:58:56.141Z,91.10
2022-10-13T05:01:24.868Z,91.10
2022-10-13T05:03:54.249Z,91.10
2022-10-13T05:06:28.741Z,91.10
2022-10-13T05:08:56.088Z,91.10
2022-10-13T05:11:24.300Z,91.10
2022-10-13T05:13:51.252Z,91.20
2022-10-13T05:16:18.902Z,91.10
2022-10-13T05:18:45.774Z,91.10
2022-10-13T05:21:14.091Z,91.20
2022-10-13T05:23:41.765Z,91.20
2022-10-13T05:26:10.646Z,91.10
2022-10-13T05:28:37.734Z,91.20
2022-10-13T05:31:31.370Z,91.20
2022-10-13T05:34:01.771Z,91.20
2022-10-13T05:36:33.171Z,91.10
2022-10-13T05:39:04.650Z,91.10
2022-10-13T05:41:31.655Z,91.10
2022-10-13T05:44:02.881Z,91.10
2022-10-13T05:46:29.779Z,91.40
2022-10-13T05:49:00.112Z,91.10
2022-10-13T05:51:36.989Z,91.10
2022-10-13T05:54:17.424Z,91.10
2022-10-13T05:56:57.947Z,91.10
2022-10-13T05:59:27.227Z,91.10
2022-10-13T06:01:54.574Z,91.20
2022-10-13T06:04:25.928Z,91.20
2022-10-13T06:06:54.055Z,91.20
2022-10-13T06:09:23.625Z,91.40
2022-10-13T06:11:51.059Z,91.20
2022-10-13T06:14:18.172Z,91.20
2022-10-13T06:16:47.656Z,91.20
2022-10-13T06:19:18.456Z,91.20
2022-10-13T06:21:45.770Z,91.20
2022-10-13T06:24:13.204Z,91.20
2022-10-13T06:26:40.025Z,91.20
2022-10-13T06:29:06.935Z,91.20
2022-10-13T06:31:33.836Z,91.20
2022-10-13T06:34:00.765Z,91.20
2022-10-13T06:36:27.818Z,91.20
2022-10-13T06:38:54.777Z,91.20
2022-10-13T06:41:21.705Z,91.20
2022-10-13T06:43:51.949Z,91.20
2022-10-13T06:46:18.745Z,91.20
2022-10-13T06:52:46.766Z,91.30
2022-10-13T06:58:50.941Z,91.20
2022-10-13T07:25:36.588Z,91.00
2022-10-13T07:55:23.230Z,91.00
2022-10-13T07:58:41.282Z,91.00
2022-10-13T08:13:48.857Z,90.90
2022-10-13T08:16:58.957Z,90.80
2022-10-13T08:19:26.955Z,90.90
2022-10-13T08:22:30.318Z,90.80
2022-10-13T08:25:38.883Z,91.10
2022-10-13T08:32:15.992Z,90.80
2022-10-13T08:35:25.017Z,90.80
2022-10-13T08:53:51.786Z,90.80
2022-10-13T09:01:00.783Z,90.70
2022-10-13T09:03:29.127Z,90.60
2022-10-13T09:06:01.966Z,90.40
2022-10-13T09:08:29.645Z,90.40
2022-10-13T09:10:57.550Z,90.30
2022-10-13T09:20:04.916Z,90.00
2022-10-13T09:33:56.883Z,89.50
2022-10-13T09:36:27.930Z,89.40
2022-10-13T09:40:13.483Z,89.40
2022-10-13T09:45:30.650Z,89.10
2022-10-13T09:48:15.382Z,89.40
2022-10-13T09:51:37.659Z,88.70
2022-10-13T09:53:40.565Z,88.50
2022-10-13T10:00:31.068Z,88.10
2022-10-13T10:03:22.538Z,87.90
2022-10-13T10:09:02.614Z,87.60
2022-10-13T10:11:46.440Z,87.40
2022-10-13T10:15:17.555Z,87.30
2022-10-13T10:17:57.464Z,87.10
2022-10-13T10:22:13.763Z,87.10
2022-10-13T10:31:35.937Z,86.60
2022-10-13T10:34:32.162Z,86.50
2022-10-13T10:38:03.038Z,86.40
2022-10-13T10:48:22.948Z,86.20
2022-10-13T11:03:09.041Z,85.80
2022-10-13T11:09:47.010Z,85.30
2022-10-13T11:12:20.149Z,85.50
2022-10-13T11:14:59.631Z,84.90
2022-10-13T11:17:39.321Z,84.70
2022-10-13T11:20:21.149Z,84.60
2022-10-13T11:22:59.772Z,85.00
2022-10-13T11:25:48.962Z,84.40
2022-10-13T11:28:22.276Z,84.10
2022-10-13T11:30:50.596Z,84.10
2022-10-13T11:33:52.228Z,84.00
2022-10-13T11:36:52.140Z,83.90
2022-10-13T11:48:28.819Z,83.60
2022-10-13T12:02:05.688Z,83.10
2022-10-13T12:04:32.939Z,83.20
2022-10-13T12:07:13.193Z,83.20
2022-10-13T12:10:04.656Z,83.10
2022-10-13T12:12:37.452Z,83.10
2022-10-13T12:15:34.080Z,83.00
2022-10-13T12:18:01.078Z,82.90
2022-10-13T12:20:30.009Z,82.90
2022-10-13T12:22:57.131Z,82.90
2022-10-13T12:25:28.617Z,82.80
2022-10-13T12:42:18.930Z,82.40
2022-10-13T13:03:07.322Z,81.90
2022-10-13T13:05:12.520Z,81.60
2022-10-13T14:42:56.921Z,78.50
2022-10-13T14:45:23.957Z,78.30
2022-10-13T14:47:56.410Z,78.40
2022-10-13T14:50:37.597Z,78.30
2022-10-13T14:53:17.754Z,78.20
2022-10-13T14:56:11.019Z,78.20
2022-10-13T14:58:40.093Z,78.10
2022-10-13T15:01:20.871Z,78.00
2022-10-13T15:22:32.820Z,78.10
2022-10-13T15:29:07.183Z,78.20
2022-10-13T15:33:33.167Z,78.20
2022-10-13T15:36:08.012Z,78.30
2022-10-13T15:38:54.958Z,78.50
2022-10-13T15:41:35.562Z,78.40
2022-10-13T15:49:02.100Z,78.60
2022-10-13T15:51:43.771Z,78.60
2022-10-13T15:54:21.413Z,78.70
2022-10-13T15:56:56.094Z,78.70
2022-10-13T15:59:26.356Z,78.80
2022-10-13T16:04:47.324Z,78.80
2022-10-13T16:07:16.585Z,79.00
2022-10-13T16:09:46.414Z,79.10
2022-10-13T16:12:48.319Z,79.30
2022-10-13T16:15:29.602Z,79.50
2022-10-13T16:17:56.959Z,79.80
2022-10-13T16:25:16.775Z,80.30
2022-10-13T16:28:32.099Z,80.50
2022-10-13T16:31:05.235Z,80.70
2022-10-13T16:33:55.630Z,80.90
2022-10-13T16:36:41.409Z,81.20
2022-10-13T16:39:10.410Z,81.30
2022-10-13T16:45:06.658Z,81.80
2022-10-13T16:52:47.645Z,82.30
2022-10-13T16:59:17.076Z,82.60
2022-10-13T17:01:50.651Z,82.80
2022-10-13T17:04:32.709Z,82.90
2022-10-13T17:07:02.088Z,83.00
2022-10-13T17:09:28.919Z,83.30
2022-10-13T17:11:55.787Z,84.00
2022-10-13T17:14:22.660Z,83.70
2022-10-13T17:16:52.098Z,83.80
2022-10-13T17:19:21.083Z,83.90
2022-10-13T17:21:48.010Z,84.00
2022-10-13T17:24:16.574Z,84.10
2022-10-13T17:26:52.765Z,84.10
2022-10-13T17:29:41.131Z,84.20
2022-10-13T17:32:48.561Z,84.30
2022-10-13T17:35:18.343Z,84.30
2022-10-13T17:53:44.056Z,85.30
2022-10-13T17:57:01.926Z,85.40
2022-10-13T18:00:48.693Z,85.40
2022-10-13T18:10:20.180Z,85.90
2022-10-13T18:17:11.059Z,86.20
2022-10-13T19:21:23.295Z,87.60
2022-10-13T19:24:39.090Z,87.70
2022-10-13T19:28:03.987Z,87.90
2022-10-13T19:34:54.940Z,87.90
2022-10-13T19:44:31.801Z,87.90
2022-10-13T19:47:23.959Z,88.00
2022-10-13T20:42:15.885Z,88.40
2022-10-13T20:45:00.407Z,88.50
2022-10-13T21:26:39.581Z,88.90
2022-10-13T22:42:46.150Z,89.20
2022-10-13T22:49:26.286Z,89.30
2022-10-13T23:17:49.067Z,89.40
2022-10-13T23:40:38.771Z,89.40
2022-10-13T23:43:17.104Z,89.50
2022-10-13T23:46:43.941Z,89.50
2022-10-13T23:56:07.039Z,89.60
